Time;durP1;ratioP1;P1;durP2;ratioP2;P2;SDS_P1;SDS_P2;PMS_P1;PMS_P2;Temp;Humidity;BMP_temperature;BMP_pressure;BME280_temperature;BME280_humidity;BME280_pressure;Samples;Min_cycle;Max_cycle;Signal;HPM_P1;HPM_P2
2021/08/12 00:02:06;;;;;;;;;;;;;;;16.45;87.25;100557.73;1635516;87;20241;-85
2021/08/12 00:04:33;;;;;;;;;;;;;;;16.45;87.25;100565.73;1636798;86;20139;-85
2021/08/12 00:07:00;;;;;;;;;;;;;;;16.39;88.08;100563.81;1634649;87;21254;-84
2021/08/12 00:09:25;;;;;;;;;;;;;;;16.29;88.35;100562.73;1634279;87;20335;-84
2021/08/12 00:11:53;;;;;;;;;;;;;;;16.29;88.51;100564.58;1635187;86;20171;-84
2021/08/12 00:14:20;;;;;;;;;;;;;;;16.22;88.94;100556.98;1631679;86;20255;-86
2021/08/12 00:16:46;;;;;;;;;;;;;;;16.19;89.19;100564.01;1626477;87;20366;-85
2021/08/12 00:19:13;;;;;;;;;;;;;;;16.05;90.08;100564.31;1627264;87;21111;-84
2021/08/12 00:21:40;;;;;;;;;;;;;;;15.96;90.74;100563.59;1629015;87;20632;-86
2021/08/12 00:24:05;;;;;;;;;;;;;;;15.92;90.90;100564.43;1629223;86;20502;-85
2021/08/12 00:26:31;;;;;;;;;;;;;;;15.92;91.03;100567.61;1627869;87;20182;-86
2021/08/12 00:29:04;;;;;;;;;;;;;;;15.89;91.38;100568.79;1628916;87;20125;-85
2021/08/12 00:31:28;;;;;;;;;;;;;;;15.92;91.42;100564.95;1626893;87;20682;-85
2021/08/12 00:33:54;;;;;;;;;;;;;;;15.93;91.34;100563.44;1627494;87;20533;-86
2021/08/12 00:36:19;;;;;;;;;;;;;;;15.92;91.64;100567.61;1629803;87;20132;-84
2021/08/12 00:38:45;;;;;;;;;;;;;;;15.94;91.39;100560.26;1626209;87;20500;-85
2021/08/12 00:41:11;;;;;;;;;;;;;;;15.97;91.49;100567.41;1626196;87;20191;-84
2021/08/12 00:43:39;;;;;;;;;;;;;;;16.01;91.71;100570.52;1626851;87;21205;-85
2021/08/12 00:46:07;;;;;;;;;;;;;;;15.88;92.28;100565.83;1626656;87;20143;-84
2021/08/12 00:48:32;;;;;;;;;;;;;;;15.90;92.29;100566.98;1629395;86;20207;-85
2021/08/12 00:51:00;;;;;;;;;;;;;;;15.86;92.47;100567.00;1628056;86;20127;-85
2021/08/12 00:53:25;;;;;;;;;;;;;;;15.81;92.66;100569.39;1629831;86;20156;-86
2021/08/12 00:55:51;;;;;;;;;;;;;;;15.78;92.90;100578.55;1622585;87;21099;-86
2021/08/12 00:58:16;;;;;;;;;;;;;;;15.82;92.53;100572.35;1628375;87;20163;-86
2021/08/12 01:00:45;;;;;;;;;;;;;;;15.72;92.73;100573.43;1628499;87;20200;-85
2021/08/12 01:03:11;;;;;;;;;;;;;;;15.75;92.81;100581.06;1625353;87;20458;-85
2021/08/12 01:05:43;;;;;;;;;;;;;;;15.67;92.88;100578.45;1599743;87;20218;-85
2021/08/12 01:08:12;;;;;;;;;;;;;;;15.65;92.67;100583.13;1621021;87;21109;-85
2021/08/12 01:10:48;;;;;;;;;;;;;;;15.56;93.15;100578.88;1626072;87;20199;-86
2021/08/12 01:13:29;;;;;;;;;;;;;;;15.55;93.47;100579.87;1628824;87;20170;-85
2021/08/12 01:15:57;;;;;;;;;;;;;;;15.56;93.34;100573.55;1633762;85;20723;-86
2021/08/12 01:18:34;;;;;;;;;;;;;;;15.52;93.37;100578.89;1635487;87;20175;-86
2021/08/12 01:21:24;;;;;;;;;;;;;;;15.48;93.65;100577.61;1633816;85;21249;-85
2021/08/12 01:23:53;;;;;;;;;;;;;;;15.43;93.86;100577.63;1634232;87;20246;-86
2021/08/12 01:26:19;;;;;;;;;;;;;;;15.49;94.08;100577.92;1632605;87;20210;-86
2021/08/12 01:28:45;;;;;;;;;;;;;;;15.40;94.09;100579.83;1634199;85;20301;-85
2021/08/12 01:31:48;;;;;;;;;;;;;;;15.24;95.03;100583.41;1635509;87;20152;-85
2021/08/12 01:34:23;;;;;;;;;;;;;;;15.24;95.12;100586.07;1635900;87;21097;-86
2021/08/12 01:36:53;;;;;;;;;;;;;;;15.26;94.92;100586.23;1634751;87;20203;-86
2021/08/12 01:39:16;;;;;;;;;;;;;;;15.35;94.43;100580.36;1632951;86;20175;-85
2021/08/12 01:41:42;;;;;;;;;;;;;;;15.31;94.39;100587.03;1635145;86;20174;-85
2021/08/12 01:44:08;;;;;;;;;;;;;;;15.31;94.49;100588.88;1632562;86;20808;-85
2021/08/12 01:46:35;;;;;;;;;;;;;;;15.35;94.17;100588.34;1636438;87;21101;-84
2021/08/12 01:49:01;;;;;;;;;;;;;;;15.33;94.25;100585.52;1633752;87;20203;-84
2021/08/12 01:51:27;;;;;;;;;;;;;;;15.31;94.14;100581.71;1635490;87;20128;-83
2021/08/12 01:53:52;;;;;;;;;;;;;;;15.39;94.00;100581.64;1635492;87;20150;-85
2021/08/12 01:56:18;;;;;;;;;;;;;;;15.38;93.55;100585.33;1633031;86;20152;-84
2021/08/12 01:58:44;;;;;;;;;;;;;;;15.39;93.40;100589.63;1633023;87;21101;-83
2021/08/12 02:01:11;;;;;;;;;;;;;;;15.34;93.38;100597.32;1634881;86;20198;-83
2021/08/12 02:03:36;;;;;;;;;;;;;;;15.33;93.49;100592.17;1631159;87;20231;-86
2021/08/12 02:06:02;;;;;;;;;;;;;;;15.26;93.85;100592.06;1635767;87;20144;-84
2021/08/12 02:08:28;;;;;;;;;;;;;;;15.22;93.94;100601.39;1633632;87;20205;-85
2021/08/12 02:10:54;;;;;;;;;;;;;;;15.22;94.05;100598.73;1635145;87;21093;-85
2021/08/12 02:13:24;;;;;;;;;;;;;;;15.18;94.22;100600.07;1634549;87;20169;-86
2021/08/12 02:15:47;;;;;;;;;;;;;;;15.19;94.09;100599.08;1633565;87;20492;-84
2021/08/12 02:18:15;;;;;;;;;;;;;;;15.07;94.85;100603.47;1635776;85;20258;-85
2021/08/12 02:20:42;;;;;;;;;;;;;;;15.05;94.80;100612.11;1633658;86;20461;-86
2021/08/12 02:23:16;;;;;;;;;;;;;;;15.00;94.98;100611.81;1608224;87;21174;-86
2021/08/12 02:25:47;;;;;;;;;;;;;;;14.90;95.77;100609.88;1634392;87;20294;-86
2021/08/12 02:28:13;;;;;;;;;;;;;;;14.86;96.09;100612.55;1621778;86;20267;-86
2021/08/12 02:30:40;;;;;;;;;;;;;;;14.85;96.06;100614.39;1613508;87;20162;-86
2021/08/12 02:33:08;;;;;;;;;;;;;;;14.87;96.19;100612.89;1635373;87;20320;-84
2021/08/12 02:35:35;;;;;;;;;;;;;;;14.81;96.57;100618.89;1618393;87;21864;-84
2021/08/12 02:38:01;;;;;;;;;;;;;;;14.71;97.42;100619.08;1635393;87;20455;-84
2021/08/12 02:40:27;;;;;;;;;;;;;;;14.68;97.68;100622.92;1634817;87;20162;-84
2021/08/12 02:42:52;;;;;;;;;;;;;;;14.62;97.85;100624.94;1635298;87;20482;-84
2021/08/12 02:45:20;;;;;;;;;;;;;;;14.57;98.37;100618.44;1635960;87;20453;-85
2021/08/12 02:47:48;;;;;;;;;;;;;;;14.63;98.24;100617.78;1634648;87;21876;-86
2021/08/12 02:50:16;;;;;;;;;;;;;;;14.61;98.04;100624.59;1636376;85;20476;-86
2021/08/12 02:52:41;;;;;;;;;;;;;;;14.62;98.10;100618.77;1630733;86;20196;-86
2021/08/12 02:55:08;;;;;;;;;;;;;;;14.65;98.02;100617.95;1603882;87;20215;-85
2021/08/12 02:57:34;;;;;;;;;;;;;;;14.66;97.70;100616.93;1609578;87;20348;-85
2021/08/12 02:59:59;;;;;;;;;;;;;;;14.56;98.13;100618.94;1631274;86;22320;-84
2021/08/12 03:02:26;;;;;;;;;;;;;;;14.51;98.56;100617.28;1613162;87;20186;-86
2021/08/12 03:04:52;;;;;;;;;;;;;;;14.50;98.79;100622.28;1635174;87;21111;-84
2021/08/12 03:07:21;;;;;;;;;;;;;;;14.64;98.39;100617.61;1632088;87;20199;-83
2021/08/12 03:09:48;;;;;;;;;;;;;;;14.68;98.00;100618.94;1630502;86;20168;-84
2021/08/12 03:12:15;;;;;;;;;;;;;;;14.66;97.62;100618.27;1635046;87;21153;-84
2021/08/12 03:14:40;;;;;;;;;;;;;;;14.56;97.95;100625.59;1634874;86;20293;-84
2021/08/12 03:17:06;;;;;;;;;;;;;;;14.49;98.62;100624.59;1634772;85;20481;-85
2021/08/12 03:19:32;;;;;;;;;;;;;;;14.46;98.81;100619.63;1629143;86;20510;-84
2021/08/12 03:21:59;;;;;;;;;;;;;;;14.40;99.19;100613.66;1631947;86;20377;-85
2021/08/12 03:24:24;;;;;;;;;;;;;;;14.43;99.27;100619.96;1632496;87;21366;-85
2021/08/12 03:26:54;;;;;;;;;;;;;;;14.51;98.89;100611.96;1633164;86;20131;-85
2021/08/12 03:29:21;;;;;;;;;;;;;;;14.47;98.75;100619.97;1635134;85;20484;-85
2021/08/12 03:31:48;;;;;;;;;;;;;;;14.51;98.49;100625.25;1635025;87;20180;-85
2021/08/12 03:34:14;;;;;;;;;;;;;;;14.47;98.79;100623.95;1636246;86;20497;-86
2021/08/12 03:36:40;;;;;;;;;;;;;;;14.45;98.94;100627.25;1633056;86;21306;-85
2021/08/12 03:39:05;;;;;;;;;;;;;;;14.39;99.28;100635.42;1636170;87;20503;-84
2021/08/12 03:41:31;;;;;;;;;;;;;;;14.48;99.11;100626.92;1632281;87;20456;-84
2021/08/12 03:43:58;;;;;;;;;;;;;;;14.45;99.40;100630.77;1633893;87;20323;-84
2021/08/12 03:46:24;;;;;;;;;;;;;;;14.53;99.36;100636.56;1639123;86;20640;-86
2021/08/12 03:48:49;;;;;;;;;;;;;;;14.55;98.79;100634.55;1633719;86;20907;-86
2021/08/12 03:51:15;;;;;;;;;;;;;;;14.61;98.53;100631.24;1632126;86;20884;-86
2021/08/12 03:53:42;;;;;;;;;;;;;;;14.60;98.42;100634.89;1634175;87;20135;-85
2021/08/12 03:56:10;;;;;;;;;;;;;;;14.61;98.27;100636.56;1635365;86;20255;-86
2021/08/12 03:58:37;;;;;;;;;;;;;;;14.63;98.08;100639.87;1628587;87;20505;-86
2021/08/12 04:01:04;;;;;;;;;;;;;;;14.65;98.26;100635.23;1610725;87;22604;-87
2021/08/12 04:03:30;;;;;;;;;;;;;;;14.75;97.58;100644.84;1609418;87;20758;-86
2021/08/12 04:05:55;;;;;;;;;;;;;;;14.70;97.59;100646.17;1610937;87;20232;-87
2021/08/12 04:08:21;;;;;;;;;;;;;;;14.78;97.52;100648.48;1636058;85;20131;-86
2021/08/12 04:10:50;;;;;;;;;;;;;;;14.82;97.23;100645.79;1635968;86;20203;-86
2021/08/12 04:13:16;;;;;;;;;;;;;;;14.86;97.14;100657.75;1635226;85;22578;-87
2021/08/12 04:15:42;;;;;;;;;;;;;;;14.85;97.03;100654.75;1639426;86;20150;-86
2021/08/12 04:18:08;;;;;;;;;;;;;;;14.88;96.79;100661.06;1643755;87;20166;-87
2021/08/12 04:20:35;;;;;;;;;;;;;;;14.86;97.07;100660.41;1646984;86;20145;-88
2021/08/12 04:23:01;;;;;;;;;;;;;;;14.84;97.13;100655.77;1639789;86;20278;-84
2021/08/12 04:25:26;;;;;;;;;;;;;;;14.87;97.39;100657.58;1638268;87;21127;-86
2021/08/12 04:27:52;;;;;;;;;;;;;;;14.88;97.64;100663.72;1639928;87;20159;-88
2021/08/12 04:30:19;;;;;;;;;;;;;;;14.90;97.55;100668.38;1614668;87;20439;-86
2021/08/12 04:32:48;;;;;;;;;;;;;;;14.97;97.23;100657.37;1644065;87;20243;-86
2021/08/12 04:35:14;;;;;;;;;;;;;;;14.99;97.25;100668.69;1638907;86;20195;-86
2021/08/12 04:37:43;;;;;;;;;;;;;;;15.00;97.30;100665.00;1639620;87;21063;-87
2021/08/12 04:40:10;;;;;;;;;;;;;;;15.10;97.32;100668.78;1639811;87;20187;-87
2021/08/12 04:42:36;;;;;;;;;;;;;;;15.08;97.41;100671.61;1638091;87;20214;-86
2021/08/12 04:45:02;;;;;;;;;;;;;;;15.14;97.16;100665.29;1641345;85;20208;-87
2021/08/12 04:47:28;;;;;;;;;;;;;;;15.19;97.24;100668.25;1641155;85;20231;-84
2021/08/12 04:49:54;;;;;;;;;;;;;;;15.26;97.06;100673.22;1638653;86;21114;-85
2021/08/12 04:52:21;;;;;;;;;;;;;;;15.36;96.77;100664.49;1640268;86;21108;-85
2021/08/12 04:54:47;;;;;;;;;;;;;;;15.42;96.42;100666.45;1639830;86;20123;-86
2021/08/12 04:57:12;;;;;;;;;;;;;;;15.50;96.32;100667.42;1638751;86;20190;-86
2021/08/12 04:59:40;;;;;;;;;;;;;;;15.54;95.92;100666.08;1640809;86;20174;-86
2021/08/12 05:02:05;;;;;;;;;;;;;;;15.62;96.00;100664.69;1638333;86;20194;-86
2021/08/12 05:04:31;;;;;;;;;;;;;;;15.69;95.60;100666.98;1638902;85;20226;-86
2021/08/12 05:06:57;;;;;;;;;;;;;;;15.81;94.99;100659.93;1640332;87;20150;-86
2021/08/12 05:09:22;;;;;;;;;;;;;;;15.86;94.93;100664.20;1640814;87;20131;-86
2021/08/12 05:11:48;;;;;;;;;;;;;;;15.94;94.59;100662.80;1639403;85;21225;-86
2021/08/12 05:14:13;;;;;;;;;;;;;;;15.96;94.61;100664.81;1640479;87;21162;-86
2021/08/12 05:16:40;;;;;;;;;;;;;;;16.05;94.21;100665.06;1634345;87;20154;-86
2021/08/12 05:19:06;;;;;;;;;;;;;;;16.11;94.04;100668.34;1612120;86;20521;-87
2021/08/12 05:21:31;;;;;;;;;;;;;;;16.15;93.90;100665.62;1615148;87;20135;-86
2021/08/12 05:23:57;;;;;;;;;;;;;;;16.24;93.39;100674.90;1637579;86;20203;-86
2021/08/12 05:26:22;;;;;;;;;;;;;;;16.40;92.60;100673.39;1635853;86;21100;-87
2021/08/12 05:28:50;;;;;;;;;;;;;;;16.53;92.21;100678.61;1634032;86;20267;-86
2021/08/12 05:31:15;;;;;;;;;;;;;;;16.56;91.43;100680.91;1637840;85;20191;-87
2021/08/12 05:33:41;;;;;;;;;;;;;;;16.46;91.72;100682.00;1632366;87;21144;-87
2021/08/12 05:36:08;;;;;;;;;;;;;;;16.46;91.44;100686.00;1636075;85;20183;-86
2021/08/12 05:38:34;;;;;;;;;;;;;;;16.50;91.77;100687.82;1633363;86;22217;-85
2021/08/12 05:40:59;;;;;;;;;;;;;;;16.61;91.91;100691.84;1633959;87;20297;-83
2021/08/12 05:43:25;;;;;;;;;;;;;;;16.67;91.45;100688.45;1634930;87;20459;-85
2021/08/12 05:45:51;;;;;;;;;;;;;;;16.67;90.77;100692.45;1631942;87;20353;-84
2021/08/12 05:48:19;;;;;;;;;;;;;;;16.75;90.64;100699.05;1631304;86;20242;-87
2021/08/12 05:50:44;;;;;;;;;;;;;;;16.85;90.39;100706.26;1634215;85;20580;-89
2021/08/12 05:53:13;;;;;;;;;;;;;;;16.88;89.73;100703.77;1634870;85;20472;-86
2021/08/12 05:55:39;;;;;;;;;;;;;;;16.93;89.84;100700.55;1610773;86;20225;-86
2021/08/12 05:58:08;;;;;;;;;;;;;;;17.00;89.51;100699.62;1635412;87;20203;-86
2021/08/12 06:00:34;;;;;;;;;;;;;;;17.07;89.18;100702.38;1633589;87;20190;-87
2021/08/12 06:03:11;;;;;;;;;;;;;;;17.19;89.63;100703.56;1632854;86;21817;-89
2021/08/12 06:05:37;;;;;;;;;;;;;;;17.31;87.80;100705.75;1634870;87;20528;-87
2021/08/12 06:08:03;;;;;;;;;;;;;;;17.38;86.11;100706.15;1635258;87;20321;-89
2021/08/12 06:10:29;;;;;;;;;;;;;;;17.44;84.86;100714.45;1633214;87;20168;-86
2021/08/12 06:12:55;;;;;;;;;;;;;;;17.43;84.86;100709.59;1633110;86;20199;-87
2021/08/12 06:15:22;;;;;;;;;;;;;;;17.49;84.21;100710.17;1631644;86;21097;-88
2021/08/12 06:17:48;;;;;;;;;;;;;;;17.59;83.01;100718.73;1626145;87;20159;-86
2021/08/12 06:20:18;;;;;;;;;;;;;;;17.68;83.14;100711.92;1626824;87;20148;-87
2021/08/12 06:22:44;;;;;;;;;;;;;;;17.77;82.54;100716.13;1601467;87;21981;-86
2021/08/12 06:25:10;;;;;;;;;;;;;;;17.87;81.88;100711.31;1628304;87;20232;-85
2021/08/12 06:27:36;;;;;;;;;;;;;;;17.99;81.52;100712.17;1626903;87;20827;-85
2021/08/12 06:30:01;;;;;;;;;;;;;;;18.08;80.56;100715.84;1628334;87;20182;-84
2021/08/12 06:32:28;;;;;;;;;;;;;;;18.16;78.04;100716.22;1604483;87;20717;-84
2021/08/12 06:34:54;;;;;;;;;;;;;;;18.21;77.62;100723.17;1628892;86;20236;-85
2021/08/12 06:37:21;;;;;;;;;;;;;;;18.35;77.02;100721.45;1626885;87;20199;-84
2021/08/12 06:39:48;;;;;;;;;;;;;;;18.33;75.96;100725.32;1601241;87;20140;-84
2021/08/12 06:42:14;;;;;;;;;;;;;;;18.36;75.47;100725.75;1627110;87;20135;-84
2021/08/12 06:44:39;;;;;;;;;;;;;;;18.44;75.25;100724.78;1628578;87;20171;-86
2021/08/12 06:47:07;;;;;;;;;;;;;;;18.53;75.01;100726.30;1630196;86;20500;-84
2021/08/12 06:49:32;;;;;;;;;;;;;;;18.59;74.06;100718.83;1628610;87;20201;-87
2021/08/12 06:51:58;;;;;;;;;;;;;;;18.57;74.27;100719.55;1626829;87;21880;-89
2021/08/12 06:54:25;;;;;;;;;;;;;;;18.69;73.67;100721.67;1626437;87;20460;-92
2021/08/12 06:56:50;;;;;;;;;;;;;;;18.78;73.57;100724.52;1627255;87;20143;-86
2021/08/12 06:59:16;;;;;;;;;;;;;;;18.92;73.50;100716.91;1627568;87;20127;-87
2021/08/12 07:01:41;;;;;;;;;;;;;;;19.05;72.82;100720.67;1622702;86;20201;-84
2021/08/12 07:04:07;;;;;;;;;;;;;;;18.99;72.44;100719.12;1630025;86;21135;-84
2021/08/12 07:06:36;;;;;;;;;;;;;;;19.07;71.50;100734.71;1627763;86;20143;-86
2021/08/12 07:09:01;;;;;;;;;;;;;;;19.05;70.64;100731.39;1628760;87;20569;-85
2021/08/12 07:11:26;;;;;;;;;;;;;;;19.18;71.83;100728.79;1627877;87;20179;-85
2021/08/12 07:13:52;;;;;;;;;;;;;;;19.32;71.87;100737.71;1629587;86;20491;-85
2021/08/12 07:16:18;;;;;;;;;;;;;;;19.30;70.51;100735.23;1628321;86;21190;-85
2021/08/12 07:18:44;;;;;;;;;;;;;;;19.40;69.82;100736.72;1622525;88;20206;-83
2021/08/12 07:21:21;;;;;;;;;;;;;;;19.49;69.68;100740.34;1624034;87;20156;-84
2021/08/12 07:23:47;;;;;;;;;;;;;;;19.46;69.57;100742.61;1621384;86;20163;-84
2021/08/12 07:26:13;;;;;;;;;;;;;;;19.48;68.42;100733.85;1623418;88;20226;-82
2021/08/12 07:28:40;;;;;;;;;;;;;;;19.58;67.92;100746.86;1624139;88;21400;-85
2021/08/12 07:31:09;;;;;;;;;;;;;;;19.50;67.08;100749.23;1621015;88;20171;-87
2021/08/12 07:33:35;;;;;;;;;;;;;;;19.56;66.59;100744.41;1621494;88;20474;-87
2021/08/12 07:36:00;;;;;;;;;;;;;;;19.52;66.66;100741.81;1619331;88;20357;-88
2021/08/12 07:38:26;;;;;;;;;;;;;;;19.61;65.71;100754.49;1622896;87;21095;-88
2021/08/12 07:40:51;;;;;;;;;;;;;;;19.59;65.69;100757.90;1620918;86;21127;-84
2021/08/12 07:43:22;;;;;;;;;;;;;;;19.72;65.89;100751.25;1623625;88;20152;-85
2021/08/12 07:45:51;;;;;;;;;;;;;;;19.75;66.41;100740.13;1622370;86;20192;-86
2021/08/12 07:48:17;;;;;;;;;;;;;;;19.90;65.99;100756.05;1620101;88;20298;-86
2021/08/12 07:50:44;;;;;;;;;;;;;;;19.83;65.39;100748.01;1622505;86;20325;-87
2021/08/12 07:53:10;;;;;;;;;;;;;;;19.82;65.77;100754.91;1623869;87;21908;-88
2021/08/12 07:55:35;;;;;;;;;;;;;;;19.91;66.07;100749.67;1620241;86;20302;-87
2021/08/12 07:58:01;;;;;;;;;;;;;;;20.05;65.28;100752.69;1622890;86;20536;-87
2021/08/12 08:00:28;;;;;;;;;;;;;;;20.07;64.87;100762.71;1622041;86;20216;-87
2021/08/12 08:02:53;;;;;;;;;;;;;;;20.12;64.53;100747.84;1605176;87;20221;-85
2021/08/12 08:05:22;;;;;;;;;;;;;;;20.17;64.44;100753.44;1623194;86;21169;-89
2021/08/12 08:07:49;;;;;;;;;;;;;;;20.23;64.45;100753.97;1619954;87;20344;-86
2021/08/12 08:10:16;;;;;;;;;;;;;;;20.23;64.70;100749.94;1619809;87;20140;-87
2021/08/12 08:12:42;;;;;;;;;;;;;;;20.36;64.95;100752.61;1603222;88;20180;-87
2021/08/12 08:15:11;;;;;;;;;;;;;;;20.33;63.35;100762.94;1622401;87;20208;-83
2021/08/12 08:17:37;;;;;;;;;;;;;;;20.43;63.13;100745.40;1630467;87;21143;-84
2021/08/12 08:20:03;;;;;;;;;;;;;;;20.55;63.36;100755.50;1632760;86;20186;-86
2021/08/12 08:22:29;;;;;;;;;;;;;;;20.59;63.39;100756.75;1632789;85;20188;-88
2021/08/12 08:24:54;;;;;;;;;;;;;;;20.70;63.56;100759.35;1633142;86;20700;-84
2021/08/12 08:27:20;;;;;;;;;;;;;;;20.77;63.17;100758.81;1637379;87;20135;-86
2021/08/12 08:29:46;;;;;;;;;;;;;;;20.78;63.63;100765.31;1634594;87;20998;-85
2021/08/12 08:32:11;;;;;;;;;;;;;;;20.76;63.36;100751.28;1631600;86;20203;-87
2021/08/12 08:34:37;;;;;;;;;;;;;;;20.97;63.10;100758.78;1633589;86;20143;-87
2021/08/12 08:37:02;;;;;;;;;;;;;;;20.86;63.07;100773.66;1630156;86;20156;-88
2021/08/12 08:39:28;;;;;;;;;;;;;;;20.82;62.84;100766.23;1635382;86;20214;-86
2021/08/12 08:41:53;;;;;;;;;;;;;;;20.93;63.03;100750.33;1633225;87;21072;-86
2021/08/12 08:44:21;;;;;;;;;;;;;;;20.90;62.54;100770.06;1632956;87;20178;-86
2021/08/12 08:46:47;;;;;;;;;;;;;;;21.00;62.34;100750.30;1633738;87;20155;-87
2021/08/12 08:49:12;;;;;;;;;;;;;;;21.09;62.61;100749.03;1635797;87;20156;-86
2021/08/12 08:51:38;;;;;;;;;;;;;;;21.12;63.19;100752.64;1634674;86;20135;-86
2021/08/12 08:54:04;;;;;;;;;;;;;;;21.15;63.16;100750.06;1632866;86;22005;-84
2021/08/12 08:56:29;;;;;;;;;;;;;;;21.30;62.45;100748.45;1634717;87;20233;-86
2021/08/12 08:58:55;;;;;;;;;;;;;;;21.30;60.85;100763.22;1634771;87;21189;-86
2021/08/12 09:01:20;;;;;;;;;;;;;;;21.09;60.69;100767.84;1634086;86;20140;-85
2021/08/12 09:03:46;;;;;;;;;;;;;;;21.25;61.47;100754.98;1634333;87;20225;-86
2021/08/12 09:06:14;;;;;;;;;;;;;;;21.29;60.41;100753.53;1638869;85;20751;-84
2021/08/12 09:08:39;;;;;;;;;;;;;;;21.22;59.35;100762.94;1633383;86;20146;-88
2021/08/12 09:11:05;;;;;;;;;;;;;;;21.26;60.40;100756.64;1636954;87;20166;-87
2021/08/12 09:13:30;;;;;;;;;;;;;;;21.25;60.59;100764.38;1635511;87;20143;-85
2021/08/12 09:15:56;;;;;;;;;;;;;;;21.36;60.91;100762.37;1634180;86;20220;-86
2021/08/12 09:18:25;;;;;;;;;;;;;;;21.40;60.01;100773.02;1621682;86;21224;-87
2021/08/12 09:20:53;;;;;;;;;;;;;;;21.42;60.21;100766.89;1623400;86;20219;-85
2021/08/12 09:23:26;;;;;;;;;;;;;;;21.42;60.80;100766.89;1623400;87;20209;-87
2021/08/12 09:25:56;;;;;;;;;;;;;;;21.48;60.46;100770.08;1623025;88;20192;-85
2021/08/12 09:28:30;;;;;;;;;;;;;;;21.57;59.21;100769.36;1623444;87;20117;-85
2021/08/12 09:31:02;;;;;;;;;;;;;;;21.56;58.87;100777.64;1622084;86;21092;-86
2021/08/12 09:33:40;;;;;;;;;;;;;;;21.76;58.36;100767.60;1621625;88;20172;-88
2021/08/12 09:36:24;;;;;;;;;;;;;;;21.78;58.94;100765.55;1591993;86;20501;-86
2021/08/12 09:39:15;;;;;;;;;;;;;;;21.69;59.11;100788.34;1623389;86;20189;-87
2021/08/12 09:41:43;;;;;;;;;;;;;;;21.75;59.04;100779.42;1623106;87;20278;-85
2021/08/12 09:44:35;;;;;;;;;;;;;;;21.85;58.69;100771.69;1626359;87;21775;-85
2021/08/12 09:47:03;;;;;;;;;;;;;;;21.90;59.08;100783.67;1627809;87;20159;-84
2021/08/12 09:49:39;;;;;;;;;;;;;;;21.94;57.43;100766.89;1606242;87;20156;-84
2021/08/12 09:52:21;;;;;;;;;;;;;;;21.90;57.51;100767.54;1622611;87;20141;-85
2021/08/12 09:54:47;;;;;;;;;;;;;;;21.82;56.45;100768.09;1604253;88;20225;-83
2021/08/12 09:57:17;;;;;;;;;;;;;;;21.97;56.78;100762.92;1605868;87;21915;-85
2021/08/12 09:59:51;;;;;;;;;;;;;;;22.07;57.39;100764.62;1622454;86;20239;-85
2021/08/12 10:02:16;;;;;;;;;;;;;;;21.96;57.01;100769.37;1604691;88;20260;-84
2021/08/12 10:04:43;;;;;;;;;;;;;;;22.01;57.86;100764.15;1623839;87;20175;-83
2021/08/12 10:07:29;;;;;;;;;;;;;;;22.01;53.77;100766.84;1621633;86;20162;-84
2021/08/12 10:09:56;;;;;;;;;;;;;;;22.24;54.07;100768.43;1619957;87;21313;-83
2021/08/12 10:12:36;;;;;;;;;;;;;;;22.20;54.02;100769.09;1621878;88;20171;-84
2021/08/12 10:15:01;;;;;;;;;;;;;;;22.46;54.67;100762.70;1624021;88;20234;-82
2021/08/12 10:17:29;;;;;;;;;;;;;;;22.48;55.17;100767.37;1609417;87;38960;-85
2021/08/12 10:19:56;;;;;;;;;;;;;;;22.29;55.15;100737.36;1613933;87;20457;-84
2021/08/12 10:22:21;;;;;;;;;;;;;;;22.45;55.41;100766.47;1633004;86;21120;-83
2021/08/12 10:24:50;;;;;;;;;;;;;;;22.47;54.18;100779.17;1634627;87;20218;-84
2021/08/12 10:27:16;;;;;;;;;;;;;;;22.45;53.98;100772.34;1633160;86;20257;-84
2021/08/12 10:29:42;;;;;;;;;;;;;;;22.52;53.81;100771.25;1633238;86;20358;-83
2021/08/12 10:32:07;;;;;;;;;;;;;;;22.68;53.99;100769.05;1631841;86;20266;-85
2021/08/12 10:34:33;;;;;;;;;;;;;;;22.77;53.59;100782.52;1630595;87;21019;-84
2021/08/12 10:36:59;;;;;;;;;;;;;;;22.89;53.67;100776.71;1607848;87;20181;-85
2021/08/12 10:39:26;;;;;;;;;;;;;;;22.88;51.39;100777.75;1632751;86;20179;-86
2021/08/12 10:41:55;;;;;;;;;;;;;;;22.80;50.68;100775.34;1609112;87;20282;-85
2021/08/12 10:44:20;;;;;;;;;;;;;;;22.70;50.81;100775.02;1631654;87;20291;-84
2021/08/12 10:46:46;;;;;;;;;;;;;;;22.63;51.08;100774.28;1633481;86;21137;-85
2021/08/12 10:49:27;;;;;;;;;;;;;;;22.82;50.99;100771.91;1630761;87;20319;-85
2021/08/12 10:52:03;;;;;;;;;;;;;;;22.75;49.42;100772.51;1628738;86;20166;-85
2021/08/12 10:54:30;;;;;;;;;;;;;;;22.88;50.53;100769.67;1625332;87;20275;-86
2021/08/12 10:57:21;;;;;;;;;;;;;;;22.94;50.52;100791.67;1628254;87;20365;-84
2021/08/12 10:59:49;;;;;;;;;;;;;;;22.84;49.42;100778.41;1632975;87;20775;-83
2021/08/12 11:02:31;;;;;;;;;;;;;;;22.92;49.83;100777.61;1630510;86;20852;-84
2021/08/12 11:04:58;;;;;;;;;;;;;;;22.87;49.63;100782.85;1628869;86;20259;-86
2021/08/12 11:07:43;;;;;;;;;;;;;;;22.94;48.92;100767.43;1631646;86;20357;-84
2021/08/12 11:10:11;;;;;;;;;;;;;;;23.04;49.30;100778.22;1629834;86;20266;-82
2021/08/12 11:12:58;;;;;;;;;;;;;;;23.10;49.36;100783.59;1607954;87;21987;-83
2021/08/12 11:15:43;;;;;;;;;;;;;;;23.14;49.53;100766.97;1629362;87;20208;-83
2021/08/12 11:18:18;;;;;;;;;;;;;;;23.18;48.95;100767.64;1636374;86;20461;-86
2021/08/12 11:20:45;;;;;;;;;;;;;;;23.03;49.66;100771.20;1610436;87;20163;-86
2021/08/12 11:23:25;;;;;;;;;;;;;;;23.17;49.63;100767.34;1641836;86;20187;-87
2021/08/12 11:25:58;;;;;;;;;;;;;;;23.32;49.53;100774.20;1639380;85;21147;-84
2021/08/12 11:28:43;;;;;;;;;;;;;;;23.45;49.98;100771.37;1640989;87;20160;-84
2021/08/12 11:31:09;;;;;;;;;;;;;;;23.28;50.38;100771.97;1639856;85;20187;-84
2021/08/12 11:33:49;;;;;;;;;;;;;;;23.39;50.33;100762.84;1612125;87;20370;-85
2021/08/12 11:36:18;;;;;;;;;;;;;;;23.33;49.94;100769.13;1639065;85;20198;-85
2021/08/12 11:38:46;;;;;;;;;;;;;;;23.21;49.29;100780.67;1641498;85;21850;-85
2021/08/12 11:41:12;;;;;;;;;;;;;;;23.17;49.36;100767.34;1640462;86;20151;-86
2021/08/12 11:43:39;;;;;;;;;;;;;;;23.37;49.77;100778.39;1640695;85;20150;-86
2021/08/12 11:46:08;;;;;;;;;;;;;;;23.45;49.98;100770.02;1639331;86;20211;-87
2021/08/12 11:48:37;;;;;;;;;;;;;;;23.30;48.83;100765.84;1639127;86;20307;-87
2021/08/12 11:51:03;;;;;;;;;;;;;;;23.60;48.58;100760.17;1637867;85;20716;-87
2021/08/12 11:53:41;;;;;;;;;;;;;;;23.55;48.63;100761.38;1640364;84;20300;-86
2021/08/12 11:56:09;;;;;;;;;;;;;;;23.58;48.44;100761.74;1638551;85;20179;-86
2021/08/12 11:58:35;;;;;;;;;;;;;;;23.64;48.09;100764.06;1641177;85;20536;-89
2021/08/12 12:01:12;;;;;;;;;;;;;;;23.52;47.47;100772.09;1640456;85;20364;-91
2021/08/12 12:03:37;;;;;;;;;;;;;;;23.72;47.11;100762.92;1637714;86;21040;-86
2021/08/12 12:06:03;;;;;;;;;;;;;;;23.71;47.04;100766.66;1641053;86;20286;-86
2021/08/12 12:08:29;;;;;;;;;;;;;;;23.66;47.60;100765.49;1638265;85;20208;-88
2021/08/12 12:10:54;;;;;;;;;;;;;;;23.68;47.90;100760.38;1637325;85;20558;-88
2021/08/12 12:13:21;;;;;;;;;;;;;;;23.65;47.94;100761.67;1594089;86;20186;-86
2021/08/12 12:15:55;;;;;;;;;;;;;;;23.73;48.08;100766.74;1640536;85;21115;-87
2021/08/12 12:18:35;;;;;;;;;;;;;;;23.80;48.39;100780.13;1629652;86;20162;-91
2021/08/12 12:21:14;;;;;;;;;;;;;;;23.65;48.34;100777.32;1629879;87;20242;-88
2021/08/12 12:23:41;;;;;;;;;;;;;;;23.72;48.85;100764.27;1627203;87;20218;-90
2021/08/12 12:26:07;;;;;;;;;;;;;;;23.76;48.81;100775.72;1628033;86;20180;-90
2021/08/12 12:28:40;;;;;;;;;;;;;;;23.82;48.57;100769.42;1626867;86;22296;-91
2021/08/12 12:31:20;;;;;;;;;;;;;;;23.87;47.33;100773.34;1623747;87;20212;-92
2021/08/12 12:34:01;;;;;;;;;;;;;;;24.07;46.42;100760.91;1631129;86;20603;-90
2021/08/12 12:36:30;;;;;;;;;;;;;;;24.16;45.93;100760.84;1630488;87;20460;-94
2021/08/12 12:38:57;;;;;;;;;;;;;;;24.03;46.64;100784.81;1624765;86;20210;-93
2021/08/12 12:41:25;;;;;;;;;;;;;;;24.11;46.88;100768.82;1627816;87;21090;-89